createdAt,value
2023-08-18T00:01:43.834Z,3.69
2023-08-18T00:04:10.146Z,3.69
2023-08-18T00:06:36.512Z,4.12
2023-08-18T00:09:02.889Z,4.06
2023-08-18T00:11:29.221Z,4.00
2023-08-18T00:13:55.594Z,3.83
2023-08-18T00:16:21.953Z,3.98
2023-08-18T00:18:48.324Z,3.84
2023-08-18T00:21:14.697Z,3.70
2023-08-18T00:23:41.044Z,4.02
2023-08-18T00:26:07.429Z,3.97
2023-08-18T00:28:33.820Z,3.80
2023-08-18T00:31:00.253Z,4.04
2023-08-18T00:33:26.688Z,3.92
2023-08-18T00:35:53.034Z,3.94
2023-08-18T00:38:19.464Z,3.83
2023-08-18T00:40:45.818Z,3.84
2023-08-18T00:43:12.191Z,3.91
2023-08-18T00:45:38.559Z,3.75
2023-08-18T00:48:04.980Z,3.98
2023-08-18T00:50:31.400Z,3.93
2023-08-18T00:52:57.765Z,3.56
2023-08-18T00:55:24.094Z,3.40
2023-08-18T00:57:50.486Z,4.00
2023-08-18T01:00:16.822Z,3.75
2023-08-18T01:02:43.285Z,3.72
2023-08-18T01:05:09.691Z,4.07
2023-08-18T01:07:36.023Z,3.99
2023-08-18T01:10:02.320Z,3.70
2023-08-18T01:12:28.686Z,3.50
2023-08-18T01:14:55.011Z,3.87
2023-08-18T01:17:21.382Z,3.85
2023-08-18T01:19:47.705Z,3.70
2023-08-18T01:22:14.039Z,3.58
2023-08-18T01:24:40.375Z,3.68
2023-08-18T01:27:06.755Z,3.84
2023-08-18T01:29:33.197Z,3.79
2023-08-18T01:31:59.611Z,3.77
2023-08-18T01:34:26.007Z,3.87
2023-08-18T01:36:52.375Z,3.82
2023-08-18T01:39:18.705Z,3.78
2023-08-18T01:41:45.078Z,3.98
2023-08-18T01:44:11.458Z,3.95
2023-08-18T01:46:37.843Z,3.74
2023-08-18T01:49:04.297Z,3.88
2023-08-18T01:51:30.633Z,3.94
2023-08-18T01:53:56.953Z,3.74
2023-08-18T01:56:23.325Z,3.61
2023-08-18T01:58:49.654Z,3.93
2023-08-18T02:01:15.972Z,3.91
2023-08-18T02:03:42.393Z,3.93
2023-08-18T02:06:08.879Z,3.69
2023-08-18T02:08:35.238Z,3.57
2023-08-18T02:11:01.651Z,3.69
2023-08-18T02:13:27.979Z,3.59
2023-08-18T02:15:54.411Z,3.61
2023-08-18T02:18:20.833Z,3.74
2023-08-18T02:20:47.209Z,3.78
2023-08-18T02:23:13.599Z,3.56
2023-08-18T02:25:39.922Z,3.58
2023-08-18T02:28:06.300Z,3.97
2023-08-18T02:30:32.679Z,3.91
2023-08-18T02:32:59.086Z,3.63
2023-08-18T02:35:25.458Z,3.71
2023-08-18T02:37:51.828Z,3.73
2023-08-18T02:40:18.196Z,3.94
2023-08-18T02:42:44.530Z,3.49
2023-08-18T02:45:10.845Z,3.67
2023-08-18T02:47:37.236Z,3.67
2023-08-18T02:50:03.619Z,3.91
2023-08-18T02:52:30.007Z,3.71
2023-08-18T02:54:56.386Z,3.53
2023-08-18T02:57:22.721Z,3.73
2023-08-18T02:59:49.089Z,3.84
2023-08-18T03:02:15.442Z,4.05
2023-08-18T03:04:41.759Z,3.67
2023-08-18T03:07:08.133Z,3.86
2023-08-18T03:09:34.547Z,3.71
2023-08-18T03:12:00.937Z,4.02
2023-08-18T03:14:27.277Z,3.61
2023-08-18T03:16:53.650Z,3.80
2023-08-18T03:19:20.062Z,3.85
2023-08-18T03:21:46.388Z,3.77
2023-08-18T03:24:12.700Z,4.17
2023-08-18T03:26:39.101Z,3.66
2023-08-18T03:29:05.460Z,3.94
2023-08-18T03:31:31.904Z,3.99
2023-08-18T03:33:58.348Z,4.02
2023-08-18T03:36:24.753Z,3.71
2023-08-18T03:38:51.109Z,3.75
2023-08-18T03:41:17.446Z,3.82
2023-08-18T03:43:43.755Z,3.74
2023-08-18T03:46:10.103Z,4.34
2023-08-18T03:48:36.654Z,3.81
2023-08-18T03:51:02.991Z,3.66
2023-08-18T03:53:29.418Z,3.85
2023-08-18T03:55:55.758Z,3.44
2023-08-18T03:58:22.100Z,4.00
2023-08-18T04:00:48.532Z,3.78
2023-08-18T04:03:14.985Z,3.77
2023-08-18T04:05:41.341Z,3.74
2023-08-18T04:08:07.710Z,3.81
2023-08-18T04:10:34.053Z,3.65
2023-08-18T04:13:00.458Z,4.13
2023-08-18T04:15:26.802Z,4.17
2023-08-18T04:17:53.197Z,4.06
2023-08-18T04:20:19.564Z,3.47
2023-08-18T04:22:45.888Z,3.87
2023-08-18T04:25:12.211Z,3.76
2023-08-18T04:27:38.598Z,3.63
2023-08-18T04:30:04.966Z,3.67
2023-08-18T04:32:31.666Z,3.76
2023-08-18T04:34:58.329Z,3.62
2023-08-18T04:37:24.666Z,3.90
2023-08-18T04:39:51.038Z,3.50
2023-08-18T04:42:17.437Z,3.75
2023-08-18T04:44:43.822Z,3.69
2023-08-18T04:47:10.156Z,3.57
2023-08-18T04:49:36.489Z,3.71
2023-08-18T04:52:02.876Z,3.47
2023-08-18T04:54:29.233Z,3.64
2023-08-18T04:56:55.615Z,3.50
2023-08-18T04:59:21.987Z,3.71
2023-08-18T05:01:48.368Z,3.88
2023-08-18T05:04:14.758Z,3.61
2023-08-18T05:06:41.093Z,3.57
2023-08-18T05:09:07.458Z,3.62
2023-08-18T05:11:33.808Z,3.56
2023-08-18T05:14:00.132Z,3.73
2023-08-18T05:16:26.553Z,3.40
2023-08-18T05:18:55.200Z,3.55
2023-08-18T05:21:22.906Z,3.53
2023-08-18T05:23:49.303Z,3.55
2023-08-18T05:26:15.687Z,3.73
2023-08-18T05:28:42.165Z,3.68
2023-08-18T05:31:08.508Z,3.76
2023-08-18T05:33:34.941Z,3.71
2023-08-18T05:36:01.383Z,3.48
2023-08-18T05:38:27.820Z,3.57
2023-08-18T05:40:54.214Z,3.66
2023-08-18T05:43:20.594Z,3.22
2023-08-18T05:45:46.989Z,3.62
2023-08-18T05:48:13.318Z,3.86
2023-08-18T05:50:39.711Z,3.58
2023-08-18T05:53:06.047Z,3.52
2023-08-18T05:55:32.445Z,3.67
2023-08-18T05:57:58.797Z,3.50
2023-08-18T06:00:25.205Z,3.47
2023-08-18T06:02:51.657Z,3.45
2023-08-18T06:05:18.076Z,3.48
2023-08-18T06:07:44.427Z,3.57
2023-08-18T06:10:10.815Z,3.34
2023-08-18T06:12:37.163Z,3.55
2023-08-18T06:15:03.470Z,3.77
2023-08-18T06:17:29.824Z,3.21
2023-08-18T06:19:56.217Z,3.33
2023-08-18T06:22:22.606Z,3.41
2023-08-18T06:24:48.989Z,3.46
2023-08-18T06:27:15.313Z,3.46
2023-08-18T06:29:41.690Z,3.27
2023-08-18T06:32:08.032Z,3.90
2023-08-18T06:34:34.350Z,3.74
2023-08-18T06:37:00.725Z,3.67
2023-08-18T06:39:27.102Z,3.36
2023-08-18T06:41:53.443Z,3.62
2023-08-18T06:44:19.776Z,3.81
2023-08-18T06:46:46.157Z,3.67
2023-08-18T06:49:12.484Z,3.62
2023-08-18T06:51:38.870Z,3.70
2023-08-18T06:54:05.247Z,4.11
2023-08-18T06:56:31.565Z,4.00
2023-08-18T06:58:57.970Z,4.22
2023-08-18T07:01:24.369Z,3.94
2023-08-18T07:03:50.888Z,3.62
2023-08-18T07:06:17.238Z,3.70
2023-08-18T07:08:43.618Z,3.84
2023-08-18T07:11:10.077Z,3.78
2023-08-18T07:13:36.420Z,3.91
2023-08-18T07:16:02.816Z,4.06
2023-08-18T07:18:29.192Z,3.77
2023-08-18T07:20:55.565Z,3.70
2023-08-18T07:23:21.942Z,3.67
2023-08-18T07:25:48.379Z,3.83
2023-08-18T07:28:14.781Z,3.96
2023-08-18T07:30:41.106Z,3.59
2023-08-18T07:33:07.519Z,3.51
2023-08-18T07:35:33.923Z,3.98
2023-08-18T07:38:00.296Z,3.56
2023-08-18T07:40:26.631Z,3.54
2023-08-18T07:42:53.010Z,3.35
2023-08-18T07:45:19.392Z,3.17
2023-08-18T07:47:45.786Z,3.18
2023-08-18T07:50:12.194Z,3.30
2023-08-18T07:52:38.527Z,3.44
2023-08-18T07:57:32.564Z,3.42
2023-08-18T07:59:58.964Z,3.22
2023-08-18T08:02:30.136Z,3.24
2023-08-18T08:04:56.882Z,3.43
2023-08-18T08:07:23.335Z,3.69
2023-08-18T08:09:49.718Z,3.37
2023-08-18T08:12:16.062Z,3.33
2023-08-18T08:14:42.461Z,3.19
2023-08-18T08:17:09.975Z,3.38
2023-08-18T08:19:36.521Z,3.17
2023-08-18T08:22:02.910Z,3.48
2023-08-18T08:24:29.300Z,3.47
2023-08-18T08:26:56.970Z,3.77
2023-08-18T08:29:23.641Z,3.52
2023-08-18T08:31:49.983Z,3.67
2023-08-18T08:34:16.479Z,3.77
2023-08-18T08:36:43.007Z,3.39
2023-08-18T08:39:09.350Z,3.38
2023-08-18T08:41:35.722Z,3.87
2023-08-18T08:44:07.946Z,3.90
2023-08-18T08:46:34.677Z,3.54
2023-08-18T08:49:01.086Z,3.56
2023-08-18T08:51:27.419Z,3.69
2023-08-18T08:53:53.795Z,3.58
2023-08-18T08:56:20.140Z,3.63
2023-08-18T08:58:46.522Z,3.71
2023-08-18T09:01:12.874Z,3.60
2023-08-18T09:03:39.253Z,3.76
2023-08-18T09:06:05.618Z,3.41
2023-08-18T09:08:32.026Z,3.67
2023-08-18T09:10:58.374Z,3.69
2023-08-18T09:13:24.761Z,3.80
2023-08-18T09:15:51.081Z,3.57
2023-08-18T09:18:17.498Z,3.86
2023-08-18T09:20:43.918Z,3.46
2023-08-18T09:23:10.299Z,3.74
2023-08-18T09:25:36.648Z,3.92
2023-08-18T09:28:06.365Z,3.98
2023-08-18T09:30:34.227Z,3.69
2023-08-18T09:33:00.662Z,3.51
2023-08-18T09:35:27.010Z,3.74
2023-08-18T09:37:53.391Z,4.23
2023-08-18T09:40:19.754Z,3.86
2023-08-18T09:42:46.115Z,3.93
2023-08-18T09:45:13.410Z,4.13
2023-08-18T09:47:39.954Z,3.65
2023-08-18T09:50:06.318Z,3.58
2023-08-18T09:52:32.820Z,3.94
2023-08-18T09:54:59.216Z,3.87
2023-08-18T09:57:25.590Z,4.01
2023-08-18T09:59:51.940Z,4.03
2023-08-18T10:02:18.266Z,3.84
2023-08-18T10:04:44.597Z,3.99
2023-08-18T10:07:10.969Z,4.25
2023-08-18T10:09:37.301Z,4.40
2023-08-18T10:12:03.697Z,3.76
2023-08-18T10:14:30.036Z,4.09
2023-08-18T10:16:56.400Z,3.80
2023-08-18T10:19:22.793Z,3.96
2023-08-18T10:21:49.114Z,4.06
2023-08-18T10:24:15.434Z,4.24
2023-08-18T10:26:41.827Z,4.24
2023-08-18T10:29:08.172Z,4.09
2023-08-18T10:31:34.526Z,4.29
2023-08-18T10:34:00.876Z,4.05
2023-08-18T10:36:29.602Z,3.90
2023-08-18T10:38:56.267Z,3.66
2023-08-18T10:41:22.574Z,4.17
2023-08-18T10:43:48.919Z,4.14
2023-08-18T10:46:15.426Z,3.76
2023-08-18T10:48:41.851Z,3.98
2023-08-18T10:51:08.226Z,4.01
2023-08-18T10:53:34.546Z,4.14
2023-08-18T10:56:00.874Z,3.91
2023-08-18T10:58:27.245Z,4.21
2023-08-18T11:00:53.579Z,4.08
2023-08-18T11:03:19.968Z,4.12
2023-08-18T11:05:46.306Z,3.93
2023-08-18T11:08:12.687Z,4.02
2023-08-18T11:10:39.074Z,4.22
2023-08-18T11:13:05.397Z,3.87
2023-08-18T11:15:31.798Z,3.93
2023-08-18T11:17:58.215Z,4.26
2023-08-18T11:20:24.588Z,4.05
2023-08-18T11:22:50.921Z,3.98
2023-08-18T11:25:17.233Z,4.18
2023-08-18T11:27:43.612Z,3.94
2023-08-18T11:30:09.992Z,3.70
2023-08-18T11:32:36.356Z,3.69
2023-08-18T11:35:02.695Z,3.85
2023-08-18T11:37:29.060Z,3.94
2023-08-18T11:39:55.452Z,3.79
2023-08-18T11:42:21.777Z,4.42
2023-08-18T11:44:48.088Z,3.79
2023-08-18T11:47:14.473Z,3.91
2023-08-18T11:49:40.806Z,3.56
2023-08-18T11:52:07.129Z,3.95
2023-08-18T11:54:33.462Z,3.92
2023-08-18T11:56:59.833Z,3.70
2023-08-18T11:59:26.167Z,3.50
2023-08-18T12:01:52.599Z,3.79
2023-08-18T12:04:18.939Z,3.35
2023-08-18T12:06:45.262Z,3.48
2023-08-18T12:09:11.632Z,3.64
2023-08-18T12:11:38.004Z,3.63
2023-08-18T12:14:04.333Z,3.46
2023-08-18T12:16:30.698Z,3.31
2023-08-18T12:18:57.042Z,3.47
2023-08-18T12:21:23.420Z,3.66
2023-08-18T12:23:49.806Z,3.36
2023-08-18T12:26:16.137Z,3.75
2023-08-18T12:28:42.508Z,3.41
2023-08-18T12:31:08.855Z,3.77
2023-08-18T12:33:35.241Z,3.61
2023-08-18T12:36:01.646Z,3.19
2023-08-18T12:38:28.046Z,3.33
2023-08-18T12:40:54.381Z,3.36
2023-08-18T12:43:20.714Z,3.45
2023-08-18T12:45:47.036Z,3.43
2023-08-18T12:48:13.371Z,3.22
2023-08-18T12:50:39.749Z,3.24
2023-08-18T12:53:06.158Z,3.38
2023-08-18T12:55:34.872Z,3.02
2023-08-18T12:58:01.699Z,3.00
2023-08-18T13:00:28.039Z,3.40
2023-08-18T13:02:54.436Z,3.10
2023-08-18T13:05:20.842Z,3.01
2023-08-18T13:07:47.184Z,3.29
2023-08-18T13:10:13.513Z,3.37
2023-08-18T13:12:39.831Z,3.06
2023-08-18T13:15:06.184Z,3.08
2023-08-18T13:17:38.821Z,3.40
2023-08-18T13:20:05.546Z,3.08
2023-08-18T13:22:31.983Z,3.05
2023-08-18T13:24:58.364Z,3.22
2023-08-18T13:27:25.418Z,3.00
2023-08-18T13:29:52.305Z,3.25
2023-08-18T13:32:18.769Z,3.21
2023-08-18T13:34:45.189Z,2.80
2023-08-18T13:37:11.526Z,3.07
2023-08-18T13:39:37.893Z,3.02
2023-08-18T13:42:05.010Z,3.05
2023-08-18T13:44:31.403Z,3.04
2023-08-18T13:46:57.807Z,2.90
2023-08-18T13:49:24.147Z,3.07
2023-08-18T13:51:50.544Z,3.01
2023-08-18T13:54:16.929Z,3.08
2023-08-18T13:56:43.262Z,2.92
2023-08-18T13:59:09.588Z,3.07
2023-08-18T14:01:36.101Z,3.05
2023-08-18T14:04:02.609Z,2.92
2023-08-18T14:06:28.967Z,3.18
2023-08-18T14:08:55.375Z,2.72
2023-08-18T14:11:21.746Z,3.29
2023-08-18T14:13:48.089Z,2.68
2023-08-18T14:16:14.533Z,2.98
2023-08-18T14:18:40.959Z,3.07
2023-08-18T14:21:07.391Z,2.76
2023-08-18T14:23:33.755Z,2.91
2023-08-18T14:26:00.135Z,2.84
2023-08-18T14:28:26.495Z,2.71
2023-08-18T14:30:52.878Z,2.70
2023-08-18T14:33:28.410Z,2.92
2023-08-18T14:36:01.853Z,2.48
2023-08-18T14:38:28.175Z,2.76
2023-08-18T14:40:54.537Z,2.92
2023-08-18T14:43:20.860Z,2.79
2023-08-18T14:45:47.200Z,2.71
2023-08-18T14:48:13.591Z,2.86
2023-08-18T14:50:39.950Z,2.81
2023-08-18T14:53:06.291Z,2.67
2023-08-18T14:55:32.625Z,2.48
2023-08-18T14:57:59.017Z,2.65
2023-08-18T15:00:25.358Z,2.39
2023-08-18T15:02:51.774Z,2.39
2023-08-18T15:05:18.241Z,2.32
2023-08-18T15:07:44.648Z,2.27
2023-08-18T15:10:10.983Z,2.30
2023-08-18T15:12:37.363Z,2.22
2023-08-18T15:15:03.803Z,2.22
2023-08-18T15:17:30.329Z,2.22
2023-08-18T15:19:56.892Z,2.33
2023-08-18T15:22:23.220Z,2.48
2023-08-18T15:24:49.527Z,2.49
2023-08-18T15:27:15.922Z,3.02
2023-08-18T15:29:42.242Z,2.26
2023-08-18T15:32:08.617Z,2.40
2023-08-18T15:34:34.967Z,2.48
2023-08-18T15:37:01.371Z,2.59
2023-08-18T15:39:27.722Z,2.21
2023-08-18T15:41:54.066Z,2.18
2023-08-18T15:44:20.426Z,2.46
2023-08-18T15:46:46.816Z,2.35
2023-08-18T15:49:13.165Z,2.30
2023-08-18T15:51:39.539Z,2.31
2023-08-18T15:54:05.995Z,2.19
2023-08-18T15:56:32.310Z,2.39
2023-08-18T15:58:58.686Z,2.45
2023-08-18T16:01:25.213Z,2.34
2023-08-18T16:03:51.671Z,2.32
2023-08-18T16:06:18.011Z,2.33
2023-08-18T16:08:44.387Z,2.52
2023-08-18T16:11:10.729Z,2.34
2023-08-18T16:13:37.099Z,2.11
2023-08-18T16:16:03.514Z,2.41
2023-08-18T16:18:29.874Z,2.41
2023-08-18T16:20:56.249Z,2.07
2023-08-18T16:23:22.642Z,2.42
2023-08-18T16:25:48.969Z,2.22
2023-08-18T16:28:15.341Z,2.46
2023-08-18T16:30:41.743Z,2.57
2023-08-18T16:33:08.236Z,2.42
2023-08-18T16:35:34.601Z,2.43
2023-08-18T16:38:00.967Z,2.44
2023-08-18T16:40:27.324Z,2.31
2023-08-18T16:42:53.693Z,2.51
2023-08-18T16:45:20.069Z,2.42
2023-08-18T16:47:46.473Z,2.52
2023-08-18T16:50:12.856Z,2.14
2023-08-18T16:52:39.187Z,2.36
2023-08-18T16:55:05.529Z,2.40
2023-08-18T16:57:32.169Z,2.47
2023-08-18T16:59:58.743Z,2.43
2023-08-18T17:02:25.075Z,2.43
2023-08-18T17:04:51.406Z,2.64
2023-08-18T17:07:17.741Z,2.52
2023-08-18T17:09:44.105Z,2.75
2023-08-18T17:12:10.494Z,2.72
2023-08-18T17:14:40.659Z,2.71
2023-08-18T17:17:07.052Z,2.57
2023-08-18T17:19:33.390Z,2.61
2023-08-18T17:21:59.783Z,2.75
2023-08-18T17:24:26.544Z,2.68
2023-08-18T17:26:52.916Z,2.62
2023-08-18T17:29:19.251Z,2.62
2023-08-18T17:31:45.629Z,2.85
2023-08-18T17:34:12.068Z,2.71
2023-08-18T17:36:38.400Z,2.66
2023-08-18T17:39:04.795Z,2.52
2023-08-18T17:41:31.179Z,2.90
2023-08-18T17:43:57.565Z,3.08
2023-08-18T17:46:23.904Z,2.97
2023-08-18T17:48:50.284Z,2.86
2023-08-18T17:51:16.612Z,2.88
2023-08-18T17:53:42.974Z,3.00
2023-08-18T17:56:09.312Z,2.80
2023-08-18T17:58:35.679Z,2.81
2023-08-18T18:01:02.056Z,2.90
2023-08-18T18:03:28.600Z,2.85
2023-08-18T18:05:55.117Z,2.84
2023-08-18T18:08:21.596Z,2.97
2023-08-18T18:10:47.938Z,2.77
2023-08-18T18:13:14.315Z,2.97
2023-08-18T18:15:40.706Z,2.82
2023-08-18T18:18:07.050Z,3.33
2023-08-18T18:20:33.470Z,3.18
2023-08-18T18:22:59.848Z,2.94
2023-08-18T18:25:26.227Z,3.14
2023-08-18T18:27:52.577Z,3.43
2023-08-18T18:30:18.955Z,3.31
2023-08-18T18:32:45.341Z,3.19
2023-08-18T18:35:11.681Z,3.30
2023-08-18T18:37:37.994Z,3.28
2023-08-18T18:40:04.373Z,3.13
2023-08-18T18:42:30.694Z,3.08
2023-08-18T18:44:57.048Z,3.26
2023-08-18T18:47:23.385Z,3.57
2023-08-18T18:49:50.762Z,3.11
2023-08-18T18:52:17.136Z,2.96
2023-08-18T18:54:43.537Z,3.28
2023-08-18T18:57:09.885Z,3.12
2023-08-18T18:59:36.255Z,3.17
2023-08-18T19:02:02.649Z,3.21
2023-08-18T19:04:28.976Z,3.00
2023-08-18T19:06:55.305Z,3.13
2023-08-18T19:09:21.634Z,2.96
2023-08-18T19:11:47.955Z,3.34
2023-08-18T19:14:14.345Z,3.31
2023-08-18T19:16:40.699Z,3.19
2023-08-18T19:19:07.069Z,2.75
2023-08-18T19:21:33.423Z,3.20
2023-08-18T19:24:01.534Z,3.11
2023-08-18T19:26:28.170Z,3.39
2023-08-18T19:28:56.170Z,3.37
2023-08-18T19:31:23.079Z,3.31
2023-08-18T19:33:49.557Z,3.42
2023-08-18T19:36:19.255Z,3.61
2023-08-18T19:38:46.302Z,9.90
2023-08-18T19:41:12.716Z,13.76
2023-08-18T19:43:39.106Z,6.16
2023-08-18T19:46:05.495Z,5.11
2023-08-18T19:48:31.823Z,4.52
2023-08-18T19:50:58.200Z,3.64
2023-08-18T19:53:24.612Z,5.82
2023-08-18T19:55:50.936Z,9.58
2023-08-18T19:58:17.342Z,4.39
2023-08-18T20:00:43.752Z,3.48
2023-08-18T20:03:10.148Z,3.45
2023-08-18T20:05:36.517Z,3.64
2023-08-18T20:08:02.904Z,3.71
2023-08-18T20:10:31.991Z,3.85
2023-08-18T20:12:59.668Z,3.35
2023-08-18T20:15:26.047Z,3.72
2023-08-18T20:17:52.381Z,3.53
2023-08-18T20:20:18.721Z,3.43
2023-08-18T20:22:45.137Z,3.36
2023-08-18T20:25:11.470Z,4.51
2023-08-18T20:27:37.844Z,3.56
2023-08-18T20:30:04.200Z,3.75
2023-08-18T20:32:30.817Z,4.83
2023-08-18T20:34:57.451Z,10.23
2023-08-18T20:37:23.805Z,11.57
2023-08-18T20:39:50.128Z,4.98
2023-08-18T20:42:16.453Z,5.29
2023-08-18T20:44:42.895Z,5.46
2023-08-18T20:47:09.233Z,4.52
2023-08-18T20:49:35.554Z,4.27
2023-08-18T20:52:01.970Z,3.87
2023-08-18T20:54:28.296Z,3.82
2023-08-18T20:56:54.638Z,3.67
2023-08-18T20:59:21.023Z,3.86
2023-08-18T21:01:47.413Z,3.57
2023-08-18T21:04:13.746Z,3.34
2023-08-18T21:06:40.126Z,3.90
2023-08-18T21:09:06.478Z,3.76
2023-08-18T21:11:32.795Z,3.53
2023-08-18T21:13:59.179Z,3.58
2023-08-18T21:16:25.584Z,3.90
2023-08-18T21:18:52.021Z,3.82
2023-08-18T21:21:18.360Z,3.78
2023-08-18T21:23:44.678Z,3.81
2023-08-18T21:26:11.042Z,3.82
2023-08-18T21:28:37.439Z,3.97
2023-08-18T21:31:03.860Z,3.93
2023-08-18T21:33:30.232Z,3.90
2023-08-18T21:35:56.566Z,3.86
2023-08-18T21:38:22.943Z,3.88
2023-08-18T21:40:49.263Z,3.78
2023-08-18T21:43:15.572Z,3.85
2023-08-18T21:45:41.949Z,3.99
2023-08-18T21:48:08.306Z,4.10
2023-08-18T21:50:34.717Z,4.03
2023-08-18T21:53:01.089Z,4.17
2023-08-18T21:55:27.478Z,4.27
2023-08-18T21:57:53.824Z,4.05
2023-08-18T22:00:20.203Z,4.07
2023-08-18T22:02:46.622Z,3.98
2023-08-18T22:05:12.989Z,4.02
2023-08-18T22:07:39.367Z,4.07
2023-08-18T22:10:05.718Z,4.10
2023-08-18T22:12:32.394Z,4.03
2023-08-18T22:14:58.971Z,3.94
2023-08-18T22:17:25.347Z,4.03
2023-08-18T22:19:51.729Z,4.17
2023-08-18T22:22:28.688Z,4.08
2023-08-18T22:25:00.083Z,4.00
2023-08-18T22:27:26.435Z,4.12
2023-08-18T22:29:52.822Z,4.05
2023-08-18T22:32:19.157Z,3.89
2023-08-18T22:34:45.480Z,4.01
2023-08-18T22:37:11.851Z,3.92
2023-08-18T22:39:38.250Z,3.99
2023-08-18T22:42:04.577Z,3.74
2023-08-18T22:44:32.236Z,3.80
2023-08-18T22:47:00.256Z,3.78
2023-08-18T22:49:26.624Z,3.68
2023-08-18T22:51:52.949Z,3.77
2023-08-18T22:54:19.267Z,4.01
2023-08-18T22:56:45.642Z,3.75
2023-08-18T22:59:12.000Z,4.00
2023-08-18T23:01:38.314Z,3.86
2023-08-18T23:04:04.714Z,3.88
2023-08-18T23:06:31.173Z,4.00
2023-08-18T23:08:57.548Z,3.89
2023-08-18T23:11:23.892Z,3.96
2023-08-18T23:13:50.261Z,4.11
2023-08-18T23:16:16.637Z,3.89
2023-08-18T23:18:43.026Z,4.10
2023-08-18T23:21:09.366Z,3.99
2023-08-18T23:23:35.764Z,4.25
2023-08-18T23:26:02.098Z,4.10
2023-08-18T23:28:28.486Z,3.91
2023-08-18T23:30:54.880Z,3.80
2023-08-18T23:33:21.301Z,3.96
2023-08-18T23:35:47.621Z,3.99
2023-08-18T23:38:13.992Z,3.69
2023-08-18T23:40:40.338Z,3.76
2023-08-18T23:43:06.732Z,3.67
2023-08-18T23:45:33.124Z,3.97
2023-08-18T23:47:59.514Z,3.99
2023-08-18T23:50:25.886Z,4.08
2023-08-18T23:52:52.225Z,3.91
2023-08-18T23:55:18.540Z,3.79
2023-08-18T23:57:44.935Z,3.69
